sensor_id;sensor_type;location;lat;lon;timestamp;temperature;humidity
13375;DHT22;6756;51.354;15.754;2023-07-31T00:02:02;14.00;99.90
13375;DHT22;6756;51.354;15.754;2023-07-31T00:06:02;14.00;99.90
13375;DHT22;6756;51.354;15.754;2023-07-31T00:10:03;14.00;99.90
13375;DHT22;6756;51.354;15.754;2023-07-31T00:14:04;13.90;99.90
13375;DHT22;6756;51.354;15.754;2023-07-31T00:18:05;14.00;99.90
13375;DHT22;6756;51.354;15.754;2023-07-31T00:22:06;13.90;99.90
13375;DHT22;6756;51.354;15.754;2023-07-31T00:26:06;13.90;99.90
13375;DHT22;6756;51.354;15.754;2023-07-31T00:30:07;13.90;99.90
13375;DHT22;6756;51.354;15.754;2023-07-31T00:34:08;13.90;99.90
13375;DHT22;6756;51.354;15.754;2023-07-31T00:38:09;13.90;99.90
13375;DHT22;6756;51.354;15.754;2023-07-31T00:42:10;13.90;99.90
13375;DHT22;6756;51.354;15.754;2023-07-31T00:46:10;13.90;99.90
13375;DHT22;6756;51.354;15.754;2023-07-31T00:50:11;13.80;99.90
13375;DHT22;6756;51.354;15.754;2023-07-31T00:54:13;13.80;99.90
13375;DHT22;6756;51.354;15.754;2023-07-31T00:58:14;13.70;99.90
13375;DHT22;6756;51.354;15.754;2023-07-31T01:02:14;13.70;99.90
13375;DHT22;6756;51.354;15.754;2023-07-31T01:10:46;13.70;99.90
13375;DHT22;6756;51.354;15.754;2023-07-31T01:19:06;13.90;99.90
13375;DHT22;6756;51.354;15.754;2023-07-31T01:27:33;13.80;99.90
13375;DHT22;6756;51.354;15.754;2023-07-31T01:31:37;13.70;99.90
13375;DHT22;6756;51.354;15.754;2023-07-31T01:35:39;13.60;99.90
13375;DHT22;6756;51.354;15.754;2023-07-31T01:39:40;13.50;99.90
13375;DHT22;6756;51.354;15.754;2023-07-31T01:43:41;13.40;99.90
13375;DHT22;6756;51.354;15.754;2023-07-31T01:47:41;13.40;99.90
13375;DHT22;6756;51.354;15.754;2023-07-31T01:51:42;13.40;99.90
13375;DHT22;6756;51.354;15.754;2023-07-31T01:55:43;13.30;99.90
13375;DHT22;6756;51.354;15.754;2023-07-31T01:59:43;13.30;99.90
13375;DHT22;6756;51.354;15.754;2023-07-31T02:03:44;13.20;99.90
13375;DHT22;6756;51.354;15.754;2023-07-31T02:07:45;13.20;99.90
13375;DHT22;6756;51.354;15.754;2023-07-31T02:11:46;13.20;99.90
13375;DHT22;6756;51.354;15.754;2023-07-31T02:15:47;13.20;99.90
13375;DHT22;6756;51.354;15.754;2023-07-31T02:19:48;13.20;99.90
13375;DHT22;6756;51.354;15.754;2023-07-31T02:23:49;13.30;99.90
13375;DHT22;6756;51.354;15.754;2023-07-31T02:27:50;13.20;99.90
13375;DHT22;6756;51.354;15.754;2023-07-31T02:31:51;13.30;99.90
13375;DHT22;6756;51.354;15.754;2023-07-31T02:35:51;13.20;99.90
13375;DHT22;6756;51.354;15.754;2023-07-31T02:39:52;13.10;99.90
13375;DHT22;6756;51.354;15.754;2023-07-31T02:43:53;13.00;99.90
13375;DHT22;6756;51.354;15.754;2023-07-31T02:47:53;13.00;99.90
13375;DHT22;6756;51.354;15.754;2023-07-31T02:51:54;13.00;99.90
13375;DHT22;6756;51.354;15.754;2023-07-31T02:55:55;13.00;99.90
13375;DHT22;6756;51.354;15.754;2023-07-31T02:59:55;13.00;99.90
13375;DHT22;6756;51.354;15.754;2023-07-31T03:03:56;13.00;99.90
13375;DHT22;6756;51.354;15.754;2023-07-31T03:07:57;13.00;99.90
13375;DHT22;6756;51.354;15.754;2023-07-31T03:11:58;13.10;99.90
13375;DHT22;6756;51.354;15.754;2023-07-31T03:15:59;13.10;99.90
13375;DHT22;6756;51.354;15.754;2023-07-31T03:19:59;13.10;99.90
13375;DHT22;6756;51.354;15.754;2023-07-31T03:24:00;13.10;99.90
13375;DHT22;6756;51.354;15.754;2023-07-31T03:28:01;13.10;99.90
13375;DHT22;6756;51.354;15.754;2023-07-31T03:32:02;13.20;99.90
13375;DHT22;6756;51.354;15.754;2023-07-31T03:36:03;13.30;99.90
13375;DHT22;6756;51.354;15.754;2023-07-31T03:40:04;13.40;99.90
13375;DHT22;6756;51.354;15.754;2023-07-31T03:44:05;13.50;99.90
13375;DHT22;6756;51.354;15.754;2023-07-31T03:48:06;13.60;99.90
13375;DHT22;6756;51.354;15.754;2023-07-31T03:52:08;13.70;99.90
13375;DHT22;6756;51.354;15.754;2023-07-31T03:56:09;13.80;99.90
13375;DHT22;6756;51.354;15.754;2023-07-31T04:00:10;13.80;99.90
13375;DHT22;6756;51.354;15.754;2023-07-31T04:04:11;13.90;99.90
13375;DHT22;6756;51.354;15.754;2023-07-31T04:08:12;14.10;99.90
13375;DHT22;6756;51.354;15.754;2023-07-31T04:12:12;14.20;99.90
13375;DHT22;6756;51.354;15.754;2023-07-31T04:16:13;14.20;99.90
13375;DHT22;6756;51.354;15.754;2023-07-31T04:20:14;14.30;99.90
13375;DHT22;6756;51.354;15.754;2023-07-31T04:24:15;14.40;99.90
13375;DHT22;6756;51.354;15.754;2023-07-31T04:28:15;14.50;99.90
13375;DHT22;6756;51.354;15.754;2023-07-31T04:32:16;14.60;99.90
13375;DHT22;6756;51.354;15.754;2023-07-31T04:36:17;14.80;99.90
13375;DHT22;6756;51.354;15.754;2023-07-31T04:40:18;14.90;99.90
13375;DHT22;6756;51.354;15.754;2023-07-31T04:44:19;15.00;99.90
13375;DHT22;6756;51.354;15.754;2023-07-31T04:48:19;15.10;99.90
13375;DHT22;6756;51.354;15.754;2023-07-31T04:52:20;15.20;99.90
13375;DHT22;6756;51.354;15.754;2023-07-31T04:56:21;15.30;99.90
13375;DHT22;6756;51.354;15.754;2023-07-31T05:00:21;15.30;99.90
13375;DHT22;6756;51.354;15.754;2023-07-31T05:04:22;15.40;99.90
13375;DHT22;6756;51.354;15.754;2023-07-31T05:08:23;15.50;99.90
13375;DHT22;6756;51.354;15.754;2023-07-31T05:12:23;15.70;99.90
13375;DHT22;6756;51.354;15.754;2023-07-31T05:16:24;15.90;99.90
13375;DHT22;6756;51.354;15.754;2023-07-31T05:20:25;16.10;99.90
13375;DHT22;6756;51.354;15.754;2023-07-31T05:24:25;16.30;99.90
13375;DHT22;6756;51.354;15.754;2023-07-31T05:28:26;16.30;98.10
13375;DHT22;6756;51.354;15.754;2023-07-31T05:32:27;16.50;37.50
13375;DHT22;6756;51.354;15.754;2023-07-31T05:36:27;16.60;12.10
13375;DHT22;6756;51.354;15.754;2023-07-31T05:40:28;16.70;1.00
13375;DHT22;6756;51.354;15.754;2023-07-31T05:44:29;16.80;1.00
13375;DHT22;6756;51.354;15.754;2023-07-31T05:48:29;16.90;1.00
13375;DHT22;6756;51.354;15.754;2023-07-31T05:52:30;17.00;1.00
13375;DHT22;6756;51.354;15.754;2023-07-31T05:56:31;17.20;1.00
13375;DHT22;6756;51.354;15.754;2023-07-31T06:00:34;17.50;1.00
13375;DHT22;6756;51.354;15.754;2023-07-31T06:04:34;18.00;1.00
13375;DHT22;6756;51.354;15.754;2023-07-31T06:08:35;18.50;1.00
13375;DHT22;6756;51.354;15.754;2023-07-31T06:12:36;18.90;1.00
13375;DHT22;6756;51.354;15.754;2023-07-31T06:16:37;19.10;1.00
13375;DHT22;6756;51.354;15.754;2023-07-31T06:20:37;19.40;1.00
13375;DHT22;6756;51.354;15.754;2023-07-31T06:24:40;19.80;1.00
13375;DHT22;6756;51.354;15.754;2023-07-31T06:28:41;19.90;1.00
13375;DHT22;6756;51.354;15.754;2023-07-31T06:32:42;19.70;1.00
13375;DHT22;6756;51.354;15.754;2023-07-31T06:36:43;19.60;1.00
13375;DHT22;6756;51.354;15.754;2023-07-31T06:40:44;19.40;1.00
13375;DHT22;6756;51.354;15.754;2023-07-31T06:44:45;19.30;1.00
13375;DHT22;6756;51.354;15.754;2023-07-31T06:48:45;19.20;1.00
13375;DHT22;6756;51.354;15.754;2023-07-31T06:52:46;19.20;1.00
13375;DHT22;6756;51.354;15.754;2023-07-31T06:56:47;19.00;1.00
13375;DHT22;6756;51.354;15.754;2023-07-31T07:00:48;19.00;1.00
13375;DHT22;6756;51.354;15.754;2023-07-31T07:04:50;18.90;1.00
13375;DHT22;6756;51.354;15.754;2023-07-31T07:08:51;18.60;1.00
13375;DHT22;6756;51.354;15.754;2023-07-31T07:12:52;18.30;1.00
13375;DHT22;6756;51.354;15.754;2023-07-31T07:16:52;18.20;1.00
13375;DHT22;6756;51.354;15.754;2023-07-31T07:20:54;18.00;1.00
13375;DHT22;6756;51.354;15.754;2023-07-31T07:24:55;17.80;1.00
13375;DHT22;6756;51.354;15.754;2023-07-31T07:28:55;17.90;1.00
13375;DHT22;6756;51.354;15.754;2023-07-31T07:32:56;17.80;1.00
13375;DHT22;6756;51.354;15.754;2023-07-31T07:36:57;17.80;1.00
13375;DHT22;6756;51.354;15.754;2023-07-31T07:40:58;17.80;1.00
13375;DHT22;6756;51.354;15.754;2023-07-31T07:44:58;17.80;1.00
13375;DHT22;6756;51.354;15.754;2023-07-31T07:48:59;17.80;1.00
13375;DHT22;6756;51.354;15.754;2023-07-31T07:53:00;17.80;1.00
13375;DHT22;6756;51.354;15.754;2023-07-31T07:57:01;17.70;1.00
13375;DHT22;6756;51.354;15.754;2023-07-31T08:01:02;17.90;1.00
13375;DHT22;6756;51.354;15.754;2023-07-31T08:05:02;18.40;1.00
13375;DHT22;6756;51.354;15.754;2023-07-31T08:09:04;19.00;1.00
13375;DHT22;6756;51.354;15.754;2023-07-31T08:13:06;19.40;1.00
13375;DHT22;6756;51.354;15.754;2023-07-31T08:17:07;19.60;1.00
13375;DHT22;6756;51.354;15.754;2023-07-31T08:21:08;19.50;1.00
13375;DHT22;6756;51.354;15.754;2023-07-31T08:25:09;19.40;1.00
13375;DHT22;6756;51.354;15.754;2023-07-31T08:29:09;19.30;1.00
13375;DHT22;6756;51.354;15.754;2023-07-31T08:33:10;19.20;1.00
13375;DHT22;6756;51.354;15.754;2023-07-31T08:37:11;19.10;1.00
13375;DHT22;6756;51.354;15.754;2023-07-31T08:41:12;18.90;1.00
13375;DHT22;6756;51.354;15.754;2023-07-31T08:45:15;18.70;1.00
13375;DHT22;6756;51.354;15.754;2023-07-31T08:49:17;18.80;1.00
13375;DHT22;6756;51.354;15.754;2023-07-31T08:53:18;19.00;1.00
13375;DHT22;6756;51.354;15.754;2023-07-31T08:57:19;19.20;1.00
13375;DHT22;6756;51.354;15.754;2023-07-31T09:01:21;19.40;1.00
13375;DHT22;6756;51.354;15.754;2023-07-31T09:05:23;19.40;1.00
13375;DHT22;6756;51.354;15.754;2023-07-31T09:09:24;19.40;1.00
13375;DHT22;6756;51.354;15.754;2023-07-31T09:13:24;19.30;1.00
13375;DHT22;6756;51.354;15.754;2023-07-31T09:17:33;19.70;1.00
13375;DHT22;6756;51.354;15.754;2023-07-31T09:21:47;20.20;1.00
13375;DHT22;6756;51.354;15.754;2023-07-31T09:25:48;20.30;1.00
13375;DHT22;6756;51.354;15.754;2023-07-31T09:29:58;20.30;1.00
13375;DHT22;6756;51.354;15.754;2023-07-31T09:33:59;20.20;1.00
13375;DHT22;6756;51.354;15.754;2023-07-31T09:38:05;20.30;1.00
13375;DHT22;6756;51.354;15.754;2023-07-31T09:42:06;20.20;1.00
13375;DHT22;6756;51.354;15.754;2023-07-31T09:46:13;20.50;1.00
13375;DHT22;6756;51.354;15.754;2023-07-31T09:50:15;20.90;1.00
13375;DHT22;6756;51.354;15.754;2023-07-31T09:54:18;21.50;1.00
13375;DHT22;6756;51.354;15.754;2023-07-31T09:58:20;21.90;1.00
13375;DHT22;6756;51.354;15.754;2023-07-31T10:02:22;22.50;1.00
13375;DHT22;6756;51.354;15.754;2023-07-31T10:06:24;23.10;1.00
13375;DHT22;6756;51.354;15.754;2023-07-31T10:10:26;23.40;99.90
13375;DHT22;6756;51.354;15.754;2023-07-31T10:14:28;23.40;99.90
13375;DHT22;6756;51.354;15.754;2023-07-31T10:18:29;23.40;99.90
13375;DHT22;6756;51.354;15.754;2023-07-31T10:22:31;23.50;99.90
13375;DHT22;6756;51.354;15.754;2023-07-31T10:26:33;23.70;99.90
13375;DHT22;6756;51.354;15.754;2023-07-31T10:30:34;23.80;99.90
13375;DHT22;6756;51.354;15.754;2023-07-31T10:34:40;23.70;99.90
13375;DHT22;6756;51.354;15.754;2023-07-31T10:38:41;23.30;99.90
13375;DHT22;6756;51.354;15.754;2023-07-31T10:42:54;23.60;99.90
13375;DHT22;6756;51.354;15.754;2023-07-31T10:46:55;24.00;99.90
13375;DHT22;6756;51.354;15.754;2023-07-31T10:50:56;24.30;99.90
13375;DHT22;6756;51.354;15.754;2023-07-31T10:59:16;24.20;99.90
13375;DHT22;6756;51.354;15.754;2023-07-31T11:03:19;24.30;99.90
13375;DHT22;6756;51.354;15.754;2023-07-31T11:07:22;24.10;99.90
13375;DHT22;6756;51.354;15.754;2023-07-31T11:11:23;24.10;99.90
13375;DHT22;6756;51.354;15.754;2023-07-31T11:15:26;24.00;99.90
13375;DHT22;6756;51.354;15.754;2023-07-31T11:19:27;24.20;99.90
13375;DHT22;6756;51.354;15.754;2023-07-31T11:23:28;24.00;99.90
13375;DHT22;6756;51.354;15.754;2023-07-31T11:27:29;24.00;99.90
13375;DHT22;6756;51.354;15.754;2023-07-31T11:31:30;24.00;99.90
13375;DHT22;6756;51.354;15.754;2023-07-31T11:35:35;24.10;99.90
13375;DHT22;6756;51.354;15.754;2023-07-31T11:39:36;24.20;99.90
13375;DHT22;6756;51.354;15.754;2023-07-31T11:43:37;24.20;99.90
13375;DHT22;6756;51.354;15.754;2023-07-31T11:47:38;23.90;99.90
13375;DHT22;6756;51.354;15.754;2023-07-31T11:51:38;23.50;99.90
13375;DHT22;6756;51.354;15.754;2023-07-31T11:55:39;23.50;99.90
13375;DHT22;6756;51.354;15.754;2023-07-31T11:59:40;23.70;99.90
13375;DHT22;6756;51.354;15.754;2023-07-31T12:03:42;23.80;99.90
13375;DHT22;6756;51.354;15.754;2023-07-31T12:07:48;24.00;99.90
13375;DHT22;6756;51.354;15.754;2023-07-31T12:11:49;24.00;99.90
13375;DHT22;6756;51.354;15.754;2023-07-31T12:15:54;23.80;99.90
13375;DHT22;6756;51.354;15.754;2023-07-31T12:19:56;23.80;99.90
13375;DHT22;6756;51.354;15.754;2023-07-31T12:24:02;24.00;99.90
13375;DHT22;6756;51.354;15.754;2023-07-31T12:28:06;24.20;99.90
13375;DHT22;6756;51.354;15.754;2023-07-31T12:32:22;24.40;99.90
13375;DHT22;6756;51.354;15.754;2023-07-31T12:36:24;24.20;99.90
13375;DHT22;6756;51.354;15.754;2023-07-31T12:40:25;24.00;99.90
13375;DHT22;6756;51.354;15.754;2023-07-31T12:44:25;24.00;99.90
13375;DHT22;6756;51.354;15.754;2023-07-31T12:48:26;24.20;99.90
13375;DHT22;6756;51.354;15.754;2023-07-31T12:52:27;24.20;99.90
13375;DHT22;6756;51.354;15.754;2023-07-31T12:56:28;24.40;99.90
13375;DHT22;6756;51.354;15.754;2023-07-31T13:00:29;24.30;99.90
13375;DHT22;6756;51.354;15.754;2023-07-31T13:04:30;24.00;99.90
13375;DHT22;6756;51.354;15.754;2023-07-31T13:08:30;23.90;99.90
13375;DHT22;6756;51.354;15.754;2023-07-31T13:12:31;24.30;99.90
13375;DHT22;6756;51.354;15.754;2023-07-31T13:16:32;24.60;99.90
13375;DHT22;6756;51.354;15.754;2023-07-31T13:20:32;24.80;99.90
13375;DHT22;6756;51.354;15.754;2023-07-31T13:24:33;25.00;99.90
13375;DHT22;6756;51.354;15.754;2023-07-31T13:28:34;24.70;99.90
13375;DHT22;6756;51.354;15.754;2023-07-31T13:32:35;24.40;99.90
13375;DHT22;6756;51.354;15.754;2023-07-31T13:36:39;24.40;99.90
13375;DHT22;6756;51.354;15.754;2023-07-31T13:40:39;24.50;99.90
13375;DHT22;6756;51.354;15.754;2023-07-31T13:44:41;24.70;99.90
13375;DHT22;6756;51.354;15.754;2023-07-31T13:48:42;24.80;99.90
13375;DHT22;6756;51.354;15.754;2023-07-31T13:52:43;25.10;99.90
13375;DHT22;6756;51.354;15.754;2023-07-31T13:56:45;25.10;99.90
13375;DHT22;6756;51.354;15.754;2023-07-31T14:00:45;24.80;99.90
13375;DHT22;6756;51.354;15.754;2023-07-31T14:04:46;24.50;99.90
13375;DHT22;6756;51.354;15.754;2023-07-31T14:08:47;24.70;99.90
13375;DHT22;6756;51.354;15.754;2023-07-31T14:12:48;24.60;99.90
13375;DHT22;6756;51.354;15.754;2023-07-31T14:16:48;24.40;99.90
13375;DHT22;6756;51.354;15.754;2023-07-31T14:20:49;24.30;99.90
13375;DHT22;6756;51.354;15.754;2023-07-31T14:24:50;24.20;99.90
13375;DHT22;6756;51.354;15.754;2023-07-31T14:28:51;24.10;99.90
13375;DHT22;6756;51.354;15.754;2023-07-31T14:32:51;23.90;99.90
13375;DHT22;6756;51.354;15.754;2023-07-31T14:36:52;23.70;99.90
13375;DHT22;6756;51.354;15.754;2023-07-31T14:40:53;23.60;99.90
13375;DHT22;6756;51.354;15.754;2023-07-31T14:44:54;23.60;99.90
13375;DHT22;6756;51.354;15.754;2023-07-31T14:48:55;23.80;99.90
13375;DHT22;6756;51.354;15.754;2023-07-31T14:52:55;23.90;99.90
13375;DHT22;6756;51.354;15.754;2023-07-31T14:56:56;24.10;99.90
13375;DHT22;6756;51.354;15.754;2023-07-31T15:00:57;24.00;99.90
13375;DHT22;6756;51.354;15.754;2023-07-31T15:04:58;24.20;99.90
13375;DHT22;6756;51.354;15.754;2023-07-31T15:08:58;24.60;99.90
13375;DHT22;6756;51.354;15.754;2023-07-31T15:12:59;24.80;99.90
13375;DHT22;6756;51.354;15.754;2023-07-31T15:17:01;24.50;99.90
13375;DHT22;6756;51.354;15.754;2023-07-31T15:21:02;24.30;99.90
13375;DHT22;6756;51.354;15.754;2023-07-31T15:25:03;24.30;99.90
13375;DHT22;6756;51.354;15.754;2023-07-31T15:29:05;24.30;99.90
13375;DHT22;6756;51.354;15.754;2023-07-31T15:33:09;24.20;99.90
13375;DHT22;6756;51.354;15.754;2023-07-31T15:37:10;24.10;99.90
13375;DHT22;6756;51.354;15.754;2023-07-31T15:41:11;24.20;99.90
13375;DHT22;6756;51.354;15.754;2023-07-31T15:45:12;24.30;99.90
13375;DHT22;6756;51.354;15.754;2023-07-31T15:49:12;24.50;99.90
13375;DHT22;6756;51.354;15.754;2023-07-31T15:53:17;24.40;99.90
13375;DHT22;6756;51.354;15.754;2023-07-31T15:57:17;24.10;99.90
13375;DHT22;6756;51.354;15.754;2023-07-31T16:01:18;23.80;99.90
13375;DHT22;6756;51.354;15.754;2023-07-31T16:05:19;23.40;99.90
13375;DHT22;6756;51.354;15.754;2023-07-31T16:09:20;23.10;99.90
13375;DHT22;6756;51.354;15.754;2023-07-31T16:13:21;22.90;99.90
13375;DHT22;6756;51.354;15.754;2023-07-31T16:17:21;22.70;99.90
13375;DHT22;6756;51.354;15.754;2023-07-31T16:21:22;22.50;99.90
13375;DHT22;6756;51.354;15.754;2023-07-31T16:25:23;22.40;99.90
13375;DHT22;6756;51.354;15.754;2023-07-31T16:29:24;22.40;99.90
13375;DHT22;6756;51.354;15.754;2023-07-31T16:33:24;22.40;99.90
13375;DHT22;6756;51.354;15.754;2023-07-31T16:37:25;22.40;99.90
13375;DHT22;6756;51.354;15.754;2023-07-31T16:41:26;22.30;99.90
13375;DHT22;6756;51.354;15.754;2023-07-31T16:45:27;22.30;99.90
13375;DHT22;6756;51.354;15.754;2023-07-31T16:49:27;22.30;99.90
13375;DHT22;6756;51.354;15.754;2023-07-31T16:53:28;22.30;99.90
13375;DHT22;6756;51.354;15.754;2023-07-31T16:57:29;22.30;99.90
13375;DHT22;6756;51.354;15.754;2023-07-31T17:01:29;22.20;99.90
13375;DHT22;6756;51.354;15.754;2023-07-31T17:05:32;22.20;99.90
13375;DHT22;6756;51.354;15.754;2023-07-31T17:09:34;22.10;99.90
13375;DHT22;6756;51.354;15.754;2023-07-31T17:13:35;22.00;99.90
13375;DHT22;6756;51.354;15.754;2023-07-31T17:17:35;21.90;99.90
13375;DHT22;6756;51.354;15.754;2023-07-31T17:21:36;21.90;99.90
13375;DHT22;6756;51.354;15.754;2023-07-31T17:25:40;21.80;99.90
13375;DHT22;6756;51.354;15.754;2023-07-31T17:29:40;21.80;99.90
13375;DHT22;6756;51.354;15.754;2023-07-31T17:33:42;21.80;99.90
13375;DHT22;6756;51.354;15.754;2023-07-31T17:37:42;21.80;99.90
13375;DHT22;6756;51.354;15.754;2023-07-31T17:41:43;21.80;99.90
13375;DHT22;6756;51.354;15.754;2023-07-31T17:45:44;21.80;99.90
13375;DHT22;6756;51.354;15.754;2023-07-31T17:49:45;21.80;99.90
13375;DHT22;6756;51.354;15.754;2023-07-31T17:53:45;21.80;99.90
13375;DHT22;6756;51.354;15.754;2023-07-31T17:57:46;21.70;99.90
13375;DHT22;6756;51.354;15.754;2023-07-31T18:01:47;21.70;99.90
13375;DHT22;6756;51.354;15.754;2023-07-31T18:05:48;21.60;99.90
13375;DHT22;6756;51.354;15.754;2023-07-31T18:09:48;21.50;99.90
13375;DHT22;6756;51.354;15.754;2023-07-31T18:13:49;21.40;99.90
13375;DHT22;6756;51.354;15.754;2023-07-31T18:17:50;21.30;99.90
13375;DHT22;6756;51.354;15.754;2023-07-31T18:21:51;21.30;99.90
13375;DHT22;6756;51.354;15.754;2023-07-31T18:25:52;21.20;99.90
13375;DHT22;6756;51.354;15.754;2023-07-31T18:29:52;21.20;99.90
13375;DHT22;6756;51.354;15.754;2023-07-31T18:33:53;21.20;99.90
13375;DHT22;6756;51.354;15.754;2023-07-31T18:37:54;21.10;99.90
13375;DHT22;6756;51.354;15.754;2023-07-31T18:41:55;21.10;99.90
13375;DHT22;6756;51.354;15.754;2023-07-31T18:45:56;21.00;99.90
13375;DHT22;6756;51.354;15.754;2023-07-31T18:49:56;20.90;99.90
13375;DHT22;6756;51.354;15.754;2023-07-31T18:53:57;20.80;99.90
13375;DHT22;6756;51.354;15.754;2023-07-31T18:57:58;20.80;99.90
13375;DHT22;6756;51.354;15.754;2023-07-31T19:01:59;20.70;99.90
13375;DHT22;6756;51.354;15.754;2023-07-31T19:06:04;20.60;99.90
13375;DHT22;6756;51.354;15.754;2023-07-31T19:10:05;20.50;99.90
13375;DHT22;6756;51.354;15.754;2023-07-31T19:14:06;20.50;99.90
13375;DHT22;6756;51.354;15.754;2023-07-31T19:18:06;20.50;99.90
13375;DHT22;6756;51.354;15.754;2023-07-31T19:22:07;20.40;99.90
13375;DHT22;6756;51.354;15.754;2023-07-31T19:26:09;20.40;99.90
13375;DHT22;6756;51.354;15.754;2023-07-31T19:30:10;20.30;99.90
13375;DHT22;6756;51.354;15.754;2023-07-31T19:34:12;20.30;99.90
13375;DHT22;6756;51.354;15.754;2023-07-31T19:38:13;20.30;99.90
13375;DHT22;6756;51.354;15.754;2023-07-31T19:42:14;20.30;99.90
13375;DHT22;6756;51.354;15.754;2023-07-31T19:46:14;20.20;99.90
13375;DHT22;6756;51.354;15.754;2023-07-31T19:50:16;20.20;99.90
13375;DHT22;6756;51.354;15.754;2023-07-31T19:54:16;20.20;99.90
13375;DHT22;6756;51.354;15.754;2023-07-31T19:58:17;20.30;99.90
13375;DHT22;6756;51.354;15.754;2023-07-31T20:02:18;20.30;99.90
13375;DHT22;6756;51.354;15.754;2023-07-31T20:06:19;20.30;99.90
13375;DHT22;6756;51.354;15.754;2023-07-31T20:10:20;20.30;99.90
13375;DHT22;6756;51.354;15.754;2023-07-31T20:14:20;20.30;99.90
13375;DHT22;6756;51.354;15.754;2023-07-31T20:18:21;20.20;99.90
13375;DHT22;6756;51.354;15.754;2023-07-31T20:22:22;20.20;99.90
13375;DHT22;6756;51.354;15.754;2023-07-31T20:26:23;20.10;99.90
13375;DHT22;6756;51.354;15.754;2023-07-31T20:30:24;20.10;99.90
13375;DHT22;6756;51.354;15.754;2023-07-31T20:34:25;20.00;1.00
13375;DHT22;6756;51.354;15.754;2023-07-31T20:38:26;20.00;1.00
13375;DHT22;6756;51.354;15.754;2023-07-31T20:42:27;19.90;1.00
13375;DHT22;6756;51.354;15.754;2023-07-31T20:46:28;19.90;1.00
13375;DHT22;6756;51.354;15.754;2023-07-31T20:50:29;19.80;1.00
13375;DHT22;6756;51.354;15.754;2023-07-31T20:54:32;19.80;1.00
13375;DHT22;6756;51.354;15.754;2023-07-31T20:58:32;19.80;1.00
13375;DHT22;6756;51.354;15.754;2023-07-31T21:02:33;19.80;1.00
13375;DHT22;6756;51.354;15.754;2023-07-31T21:06:34;19.70;1.00
13375;DHT22;6756;51.354;15.754;2023-07-31T21:10:38;19.70;1.00
13375;DHT22;6756;51.354;15.754;2023-07-31T21:14:42;19.70;1.00
13375;DHT22;6756;51.354;15.754;2023-07-31T21:18:43;19.70;1.00
13375;DHT22;6756;51.354;15.754;2023-07-31T21:22:44;19.60;1.00
13375;DHT22;6756;51.354;15.754;2023-07-31T21:26:44;19.60;1.00
13375;DHT22;6756;51.354;15.754;2023-07-31T21:30:45;19.60;1.00
13375;DHT22;6756;51.354;15.754;2023-07-31T21:34:47;19.60;1.00
13375;DHT22;6756;51.354;15.754;2023-07-31T21:38:48;19.50;1.00
13375;DHT22;6756;51.354;15.754;2023-07-31T21:42:49;19.50;1.00
13375;DHT22;6756;51.354;15.754;2023-07-31T21:46:50;19.50;1.00
13375;DHT22;6756;51.354;15.754;2023-07-31T21:50:50;19.40;1.00
13375;DHT22;6756;51.354;15.754;2023-07-31T21:54:51;19.30;1.00
13375;DHT22;6756;51.354;15.754;2023-07-31T21:58:52;19.30;1.00
13375;DHT22;6756;51.354;15.754;2023-07-31T22:02:53;19.30;1.00
13375;DHT22;6756;51.354;15.754;2023-07-31T22:06:54;19.30;1.00
13375;DHT22;6756;51.354;15.754;2023-07-31T22:10:55;19.20;1.00
13375;DHT22;6756;51.354;15.754;2023-07-31T22:14:56;19.20;1.00
13375;DHT22;6756;51.354;15.754;2023-07-31T22:18:56;19.20;1.00
13375;DHT22;6756;51.354;15.754;2023-07-31T22:22:57;19.20;1.00
13375;DHT22;6756;51.354;15.754;2023-07-31T22:26:58;19.20;1.00
13375;DHT22;6756;51.354;15.754;2023-07-31T22:30:59;19.10;1.00
13375;DHT22;6756;51.354;15.754;2023-07-31T22:34:59;19.10;1.00
13375;DHT22;6756;51.354;15.754;2023-07-31T22:39:00;19.00;1.00
13375;DHT22;6756;51.354;15.754;2023-07-31T22:43:01;18.90;1.00
13375;DHT22;6756;51.354;15.754;2023-07-31T22:47:02;18.90;1.00
13375;DHT22;6756;51.354;15.754;2023-07-31T22:51:05;18.80;1.00
13375;DHT22;6756;51.354;15.754;2023-07-31T22:55:06;18.80;1.00
13375;DHT22;6756;51.354;15.754;2023-07-31T22:59:07;18.80;1.00
13375;DHT22;6756;51.354;15.754;2023-07-31T23:03:08;18.80;1.00
13375;DHT22;6756;51.354;15.754;2023-07-31T23:07:09;18.90;1.00
13375;DHT22;6756;51.354;15.754;2023-07-31T23:11:10;18.90;1.00
13375;DHT22;6756;51.354;15.754;2023-07-31T23:15:11;19.00;1.00
13375;DHT22;6756;51.354;15.754;2023-07-31T23:19:11;18.90;1.00
13375;DHT22;6756;51.354;15.754;2023-07-31T23:23:12;18.90;1.00
13375;DHT22;6756;51.354;15.754;2023-07-31T23:27:13;18.90;1.00
13375;DHT22;6756;51.354;15.754;2023-07-31T23:31:14;18.90;1.00
13375;DHT22;6756;51.354;15.754;2023-07-31T23:35:14;18.80;1.00
13375;DHT22;6756;51.354;15.754;2023-07-31T23:39:15;18.80;1.00
13375;DHT22;6756;51.354;15.754;2023-07-31T23:43:16;18.70;1.00
13375;DHT22;6756;51.354;15.754;2023-07-31T23:47:17;18.70;1.00
13375;DHT22;6756;51.354;15.754;2023-07-31T23:51:17;18.60;1.00
13375;DHT22;6756;51.354;15.754;2023-07-31T23:55:18;18.60;1.00
13375;DHT22;6756;51.354;15.754;2023-07-31T23:59:19;18.60;1.00
